Time;durP1;ratioP1;P1;durP2;ratioP2;P2;SDS_P1;SDS_P2;PMS_P1;PMS_P2;Temp;Humidity;BMP_temperature;BMP_pressure;BME280_temperature;BME280_humidity;BME280_pressure;Samples;Min_cycle;Max_cycle;Signal;HPM_P1;HPM_P2
2023/06/21 00:01:41;;;;;;;;;9.00;9.00;;;;;;;;5010871;28;8811;-71
2023/06/21 00:04:06;;;;;;;;;9.00;9.00;;;;;;;;5010417;28;9045;-73
2023/06/21 00:06:34;;;;;;;;;13.67;11.33;;;;;;;;5010629;28;9004;-72
2023/06/21 00:09:00;;;;;;;;;14.67;12.33;;;;;;;;5010797;28;8795;-70
2023/06/21 00:11:25;;;;;;;;;11.33;11.33;;;;;;;;5010602;28;9001;-70
2023/06/21 00:13:54;;;;;;;;;12.00;11.33;;;;;;;;5009166;28;8882;-71
2023/06/21 00:16:20;;;;;;;;;11.00;11.00;;;;;;;;5010488;28;9575;-70
2023/06/21 00:18:45;;;;;;;;;14.00;10.67;;;;;;;;5010488;28;8913;-70
2023/06/21 00:21:10;;;;;;;;;15.00;13.00;;;;;;;;4992063;28;8817;-72
2023/06/21 00:23:35;;;;;;;;;12.00;11.00;;;;;;;;5010540;28;8772;-70
2023/06/21 00:26:01;;;;;;;;;14.00;10.33;;;;;;;;5010501;28;8852;-70
2023/06/21 00:28:26;;;;;;;;;12.00;11.00;;;;;;;;5010569;28;9539;-70
2023/06/21 00:30:51;;;;;;;;;12.33;10.33;;;;;;;;5010346;28;8772;-69
2023/06/21 00:33:16;;;;;;;;;14.00;11.00;;;;;;;;5010329;28;8800;-69
2023/06/21 00:35:42;;;;;;;;;9.67;9.67;;;;;;;;5010561;28;8800;-70
2023/06/21 00:38:07;;;;;;;;;11.00;10.00;;;;;;;;5008688;28;8824;-71
2023/06/21 00:40:33;;;;;;;;;11.33;10.67;;;;;;;;5009682;28;9550;-77
2023/06/21 00:42:58;;;;;;;;;11.00;10.00;;;;;;;;5011050;28;9499;-78
2023/06/21 00:45:23;;;;;;;;;11.00;10.00;;;;;;;;5010873;28;8784;-76
2023/06/21 00:47:49;;;;;;;;;10.00;10.00;;;;;;;;5010787;28;8795;-77
2023/06/21 00:50:15;;;;;;;;;10.33;9.67;;;;;;;;4993507;28;8837;-77
2023/06/21 00:52:43;;;;;;;;;15.00;10.33;;;;;;;;4991357;28;9600;-78
2023/06/21 00:55:08;;;;;;;;;17.00;16.00;;;;;;;;4991329;28;9941;-78
2023/06/21 00:57:34;;;;;;;;;15.75;14.50;;;;;;;;4990673;28;9197;-75
2023/06/21 00:59:59;;;;;;;;;17.50;14.25;;;;;;;;4990659;28;8822;-75
2023/06/21 01:02:24;;;;;;;;;17.00;14.00;;;;;;;;4990451;28;8819;-75
2023/06/21 01:04:50;;;;;;;;;13.00;10.67;;;;;;;;4972439;28;8864;-75
2023/06/21 01:07:29;;;;;;;;;13.67;11.67;;;;;;;;4972648;28;9598;-75
2023/06/21 01:09:57;;;;;;;;;14.67;11.00;;;;;;;;4972751;28;9542;-75
2023/06/21 01:12:46;;;;;;;;;10.67;10.00;;;;;;;;4990670;28;9265;-76
2023/06/21 01:15:15;;;;;;;;;9.33;9.33;;;;;;;;5000419;28;9344;-76
2023/06/21 01:17:40;;;;;;;;;10.33;9.33;;;;;;;;5009949;28;10176;-75
2023/06/21 01:20:13;;;;;;;;;10.00;10.00;;;;;;;;5010068;28;9272;-76
2023/06/21 01:22:56;;;;;;;;;13.00;10.00;;;;;;;;5009573;28;8796;-76
2023/06/21 01:25:41;;;;;;;;;9.33;9.00;;;;;;;;5010067;28;9227;-76
2023/06/21 01:28:15;;;;;;;;;11.67;10.67;;;;;;;;5010439;28;9140;-76
2023/06/21 01:30:41;;;;;;;;;10.00;10.00;;;;;;;;5009856;28;9278;-76
2023/06/21 01:33:07;;;;;;;;;9.00;9.00;;;;;;;;5009963;28;9194;-76
2023/06/21 01:35:32;;;;;;;;;10.33;10.00;;;;;;;;5009867;28;8828;-76
2023/06/21 01:38:00;;;;;;;;;11.33;9.67;;;;;;;;5010043;28;12215;-76
2023/06/21 01:40:25;;;;;;;;;10.67;10.33;;;;;;;;5010103;28;8834;-77
2023/06/21 01:42:50;;;;;;;;;13.33;10.00;;;;;;;;5010108;28;9274;-77
2023/06/21 01:45:16;;;;;;;;;12.33;11.00;;;;;;;;5010093;28;8938;-74
2023/06/21 01:47:43;;;;;;;;;13.00;11.00;;;;;;;;5009875;28;8776;-77
2023/06/21 01:50:09;;;;;;;;;11.00;10.50;;;;;;;;5009722;28;9609;-76
2023/06/21 01:52:35;;;;;;;;;17.00;14.00;;;;;;;;4991727;28;9451;-76
2023/06/21 01:55:02;;;;;;;;;16.25;15.50;;;;;;;;5009282;28;10323;-76
2023/06/21 01:57:29;;;;;;;;;15.50;13.50;;;;;;;;4992094;28;9552;-76
2023/06/21 01:59:54;;;;;;;;;15.33;13.33;;;;;;;;5009449;28;9699;-76
2023/06/21 02:02:21;;;;;;;;;15.00;14.25;;;;;;;;5009658;28;9328;-77
2023/06/21 02:04:46;;;;;;;;;23.00;21.00;;;;;;;;5011383;28;8800;-77
2023/06/21 02:07:13;;;;;;;;;15.25;14.25;;;;;;;;5019242;28;9800;-76
2023/06/21 02:09:39;;;;;;;;;15.00;14.00;;;;;;;;5014729;28;8787;-76
2023/06/21 02:12:05;;;;;;;;;21.25;14.75;;;;;;;;5009269;28;9603;-75
2023/06/21 02:14:30;;;;;;;;;15.75;13.50;;;;;;;;4991738;28;8816;-76
2023/06/21 02:16:55;;;;;;;;;12.50;11.75;;;;;;;;5011577;28;8792;-75
2023/06/21 02:19:22;;;;;;;;;13.00;12.50;;;;;;;;5012824;28;8800;-76
2023/06/21 02:21:48;;;;;;;;;11.50;11.50;;;;;;;;5012564;28;8793;-74
2023/06/21 02:24:13;;;;;;;;;12.50;10.50;;;;;;;;5012835;28;9630;-73
2023/06/21 02:26:38;;;;;;;;;11.67;10.00;;;;;;;;5012807;28;8768;-75
2023/06/21 02:29:03;;;;;;;;;13.50;12.50;;;;;;;;5012887;28;8889;-75
2023/06/21 02:31:31;;;;;;;;;9.25;9.25;;;;;;;;5012416;28;8789;-77
2023/06/21 02:33:56;;;;;;;;;10.33;10.00;;;;;;;;5012973;28;8824;-76
2023/06/21 02:36:21;;;;;;;;;11.67;11.33;;;;;;;;5013023;28;9565;-76
2023/06/21 02:38:47;;;;;;;;;13.75;13.75;;;;;;;;4995609;28;8792;-76
2023/06/21 02:41:12;;;;;;;;;13.50;13.50;;;;;;;;5012531;28;8804;-75
2023/06/21 02:43:37;;;;;;;;;13.25;12.00;;;;;;;;5012392;28;8793;-75
2023/06/21 02:46:03;;;;;;;;;15.00;13.00;;;;;;;;5012313;28;8886;-75
2023/06/21 02:48:28;;;;;;;;;14.00;9.75;;;;;;;;5012769;28;8842;-76
2023/06/21 02:50:53;;;;;;;;;13.25;11.00;;;;;;;;5012039;28;9535;-75
2023/06/21 02:53:19;;;;;;;;;15.50;13.50;;;;;;;;5012557;28;8784;-75
2023/06/21 02:55:44;;;;;;;;;11.75;11.00;;;;;;;;5014775;28;9531;-75
2023/06/21 02:58:09;;;;;;;;;12.50;12.00;;;;;;;;5014285;28;8800;-77
2023/06/21 03:00:35;;;;;;;;;12.50;12.00;;;;;;;;5012634;28;8847;-76
2023/06/21 03:03:00;;;;;;;;;13.25;12.25;;;;;;;;5012581;28;8784;-77
2023/06/21 03:05:34;;;;;;;;;12.75;9.50;;;;;;;;5012678;28;8856;-76
2023/06/21 03:08:00;;;;;;;;;9.00;6.25;;;;;;;;5012179;28;8920;-76
2023/06/21 03:10:26;;;;;;;;;12.00;12.00;;;;;;;;5012334;28;9529;-76
2023/06/21 03:12:51;;;;;;;;;14.00;12.00;;;;;;;;5012619;28;8850;-76
2023/06/21 03:15:17;;;;;;;;;13.50;12.50;;;;;;;;5012468;28;11490;-76
2023/06/21 03:17:42;;;;;;;;;10.00;8.75;;;;;;;;5012624;28;8910;-76
2023/06/21 03:20:12;;;;;;;;;12.50;8.50;;;;;;;;5012125;28;8820;-75
2023/06/21 03:22:37;;;;;;;;;10.00;10.00;;;;;;;;5012121;28;8874;-75
2023/06/21 03:25:02;;;;;;;;;11.75;10.25;;;;;;;;5012187;28;9320;-75
2023/06/21 03:27:28;;;;;;;;;13.00;11.50;;;;;;;;5011673;28;8808;-77
2023/06/21 03:29:53;;;;;;;;;12.00;11.50;;;;;;;;5012358;28;8776;-76
2023/06/21 03:32:19;;;;;;;;;11.50;9.75;;;;;;;;5012053;28;9523;-77
2023/06/21 03:34:44;;;;;;;;;14.50;12.50;;;;;;;;5011635;28;8807;-75
2023/06/21 03:37:10;;;;;;;;;12.50;12.00;;;;;;;;5011906;28;9671;-75
2023/06/21 03:39:35;;;;;;;;;13.25;13.25;;;;;;;;5011865;28;8820;-75
2023/06/21 03:42:01;;;;;;;;;14.50;12.50;;;;;;;;5011275;28;8826;-75
2023/06/21 03:44:26;;;;;;;;;13.50;12.25;;;;;;;;5011287;28;8873;-74
2023/06/21 03:46:51;;;;;;;;;14.75;13.00;;;;;;;;5011012;28;8827;-75
2023/06/21 03:49:20;;;;;;;;;11.50;11.00;;;;;;;;5011214;28;8897;-75
2023/06/21 03:51:46;;;;;;;;;14.75;11.00;;;;;;;;5011131;28;8823;-75
2023/06/21 03:54:11;;;;;;;;;9.50;9.50;;;;;;;;5011120;28;9547;-76
2023/06/21 03:56:36;;;;;;;;;11.67;11.00;;;;;;;;5011198;28;8781;-76
2023/06/21 03:59:01;;;;;;;;;9.75;9.75;;;;;;;;5011117;28;8800;-76
2023/06/21 04:01:27;;;;;;;;;9.00;8.00;;;;;;;;5011125;28;8860;-75
2023/06/21 04:03:52;;;;;;;;;12.75;10.25;;;;;;;;5010620;28;8808;-76
2023/06/21 04:06:17;;;;;;;;;11.75;10.25;;;;;;;;5010653;28;8822;-76
2023/06/21 04:08:42;;;;;;;;;11.75;10.50;;;;;;;;5011062;28;8834;-75
2023/06/21 04:11:08;;;;;;;;;13.00;10.50;;;;;;;;5010810;28;8915;-76
2023/06/21 04:13:33;;;;;;;;;9.00;9.00;;;;;;;;5011107;28;8847;-76
2023/06/21 04:15:58;;;;;;;;;12.75;10.00;;;;;;;;5011061;28;8793;-76
2023/06/21 04:18:23;;;;;;;;;10.75;8.75;;;;;;;;5011167;28;8827;-76
2023/06/21 04:20:49;;;;;;;;;10.50;9.00;;;;;;;;5018548;28;8843;-77
2023/06/21 04:23:15;;;;;;;;;15.00;10.75;;;;;;;;5017154;28;8934;-75
2023/06/21 04:25:40;;;;;;;;;12.25;10.00;;;;;;;;5010864;28;8784;-75
2023/06/21 04:28:06;;;;;;;;;12.25;10.00;;;;;;;;5010685;28;8886;-75
2023/06/21 04:30:34;;;;;;;;;12.00;9.75;;;;;;;;4992839;28;8831;-75
2023/06/21 04:32:59;;;;;;;;;18.25;13.75;;;;;;;;4993027;28;8951;-75
2023/06/21 04:35:24;;;;;;;;;12.75;12.00;;;;;;;;5010694;28;9717;-75
2023/06/21 04:37:50;;;;;;;;;16.00;11.50;;;;;;;;5009171;28;8800;-75
2023/06/21 04:40:17;;;;;;;;;17.25;12.50;;;;;;;;5009815;28;8921;-75
2023/06/21 04:42:43;;;;;;;;;12.50;12.25;;;;;;;;5010015;28;8814;-75
2023/06/21 04:45:10;;;;;;;;;15.50;12.00;;;;;;;;4946387;28;11396;-75
2023/06/21 04:47:37;;;;;;;;;14.75;10.50;;;;;;;;5007939;28;8824;-75
2023/06/21 04:50:02;;;;;;;;;11.75;10.00;;;;;;;;5008150;28;9759;-75
2023/06/21 04:52:28;;;;;;;;;13.00;12.50;;;;;;;;5008322;28;9764;-75
2023/06/21 04:54:59;;;;;;;;;16.00;14.00;;;;;;;;5008666;28;8823;-75
2023/06/21 04:57:24;;;;;;;;;17.00;15.00;;;;;;;;5008647;28;9547;-75
2023/06/21 04:59:49;;;;;;;;;19.50;19.25;;;;;;;;5008240;28;9955;-76
2023/06/21 05:02:14;;;;;;;;;15.00;14.25;;;;;;;;5008821;28;8895;-76
2023/06/21 05:04:40;;;;;;;;;13.50;12.75;;;;;;;;5009949;28;8784;-75
2023/06/21 05:07:05;;;;;;;;;13.50;13.50;;;;;;;;5009551;28;9541;-74
2023/06/21 05:09:30;;;;;;;;;16.00;14.75;;;;;;;;5009846;28;8772;-75
2023/06/21 05:11:55;;;;;;;;;14.50;14.00;;;;;;;;4992142;28;8829;-74
2023/06/21 05:14:21;;;;;;;;;16.00;14.75;;;;;;;;5009633;28;8801;-76
2023/06/21 05:16:46;;;;;;;;;19.25;13.50;;;;;;;;5009404;28;8886;-76
2023/06/21 05:19:11;;;;;;;;;24.50;18.00;;;;;;;;5011319;28;9634;-75
2023/06/21 05:21:37;;;;;;;;;19.25;14.25;;;;;;;;5009246;28;8796;-75
2023/06/21 05:24:02;;;;;;;;;17.50;16.50;;;;;;;;5009922;28;8877;-75
2023/06/21 05:26:27;;;;;;;;;15.00;15.00;;;;;;;;5010444;28;8796;-76
2023/06/21 05:28:53;;;;;;;;;14.75;14.25;;;;;;;;5009867;28;8792;-74
2023/06/21 05:31:18;;;;;;;;;12.00;12.00;;;;;;;;5009827;28;8784;-74
2023/06/21 05:33:43;;;;;;;;;14.75;13.75;;;;;;;;5008498;28;8882;-75
2023/06/21 05:36:09;;;;;;;;;14.75;12.50;;;;;;;;5010435;28;8792;-77
2023/06/21 05:38:34;;;;;;;;;19.75;14.50;;;;;;;;5009339;28;8927;-76
2023/06/21 05:41:00;;;;;;;;;16.50;13.75;;;;;;;;5010147;28;8844;-76
2023/06/21 05:43:25;;;;;;;;;15.00;13.75;;;;;;;;5009956;28;8827;-77
2023/06/21 05:45:50;;;;;;;;;15.00;13.25;;;;;;;;5010047;28;9511;-79
2023/06/21 05:48:17;;;;;;;;;10.00;10.00;;;;;;;;5009495;28;8796;-74
2023/06/21 05:50:42;;;;;;;;;13.50;11.75;;;;;;;;5009984;28;8865;-75
2023/06/21 05:53:07;;;;;;;;;15.25;13.00;;;;;;;;5013093;28;9863;-73
2023/06/21 05:55:33;;;;;;;;;11.50;11.50;;;;;;;;5011199;28;8927;-76
2023/06/21 05:57:58;;;;;;;;;13.00;13.00;;;;;;;;5011805;28;8816;-73
2023/06/21 06:00:23;;;;;;;;;14.00;12.00;;;;;;;;4995110;28;8828;-73
2023/06/21 06:02:49;;;;;;;;;14.00;13.00;;;;;;;;4995760;28;8795;-71
2023/06/21 06:05:14;;;;;;;;;14.00;12.25;;;;;;;;4993271;28;8794;-75
2023/06/21 06:07:39;;;;;;;;;14.75;14.00;;;;;;;;4992573;28;8837;-74
2023/06/21 06:10:05;;;;;;;;;17.25;15.25;;;;;;;;4993190;28;8826;-76
2023/06/21 06:12:30;;;;;;;;;13.25;12.25;;;;;;;;4992817;28;8787;-74
2023/06/21 06:14:56;;;;;;;;;12.00;9.50;;;;;;;;4979958;28;8814;-74
2023/06/21 06:17:21;;;;;;;;;15.50;12.25;;;;;;;;4993115;28;8794;-73
2023/06/21 06:19:46;;;;;;;;;11.00;8.75;;;;;;;;4992373;28;8857;-74
2023/06/21 06:22:12;;;;;;;;;14.75;14.00;;;;;;;;4992833;28;8818;-76
2023/06/21 06:24:37;;;;;;;;;16.00;10.00;;;;;;;;4992917;28;8957;-74
2023/06/21 06:27:03;;;;;;;;;15.50;10.75;;;;;;;;5012064;28;8824;-77
2023/06/21 06:29:28;;;;;;;;;13.75;12.75;;;;;;;;5012064;28;8800;-74
2023/06/21 06:31:53;;;;;;;;;13.50;13.50;;;;;;;;5013044;28;8780;-77
2023/06/21 06:34:18;;;;;;;;;13.25;13.25;;;;;;;;5014833;28;8785;-76
2023/06/21 06:36:44;;;;;;;;;13.75;10.00;;;;;;;;5026392;28;8811;-76
2023/06/21 06:39:10;;;;;;;;;13.50;12.75;;;;;;;;5014350;28;8910;-78
2023/06/21 06:41:35;;;;;;;;;16.50;14.75;;;;;;;;5014003;28;8824;-79
2023/06/21 06:44:00;;;;;;;;;18.25;15.25;;;;;;;;5012819;28;9569;-81
2023/06/21 06:46:26;;;;;;;;;23.50;16.25;;;;;;;;4992622;28;9611;-73
2023/06/21 06:48:51;;;;;;;;;18.50;13.25;;;;;;;;4992116;28;8810;-76
2023/06/21 06:51:16;;;;;;;;;15.00;14.50;;;;;;;;4992962;28;8794;-79
2023/06/21 06:53:42;;;;;;;;;18.50;15.00;;;;;;;;4975116;28;9032;-77
2023/06/21 06:56:07;;;;;;;;;17.67;15.00;;;;;;;;4992823;28;8799;-78
2023/06/21 06:58:35;;;;;;;;;19.67;15.33;;;;;;;;5008475;28;8843;-77
2023/06/21 07:01:00;;;;;;;;;21.00;16.33;;;;;;;;5011847;28;8843;-76
2023/06/21 07:03:26;;;;;;;;;15.00;15.00;;;;;;;;5010988;28;9408;-77
2023/06/21 07:05:51;;;;;;;;;17.75;16.00;;;;;;;;5012106;28;8808;-76
2023/06/21 07:08:16;;;;;;;;;16.33;15.33;;;;;;;;5011925;28;8822;-76
2023/06/21 07:10:42;;;;;;;;;19.00;15.33;;;;;;;;5011432;28;8839;-75
2023/06/21 07:13:07;;;;;;;;;15.33;13.67;;;;;;;;5010590;28;8831;-78
2023/06/21 07:15:33;;;;;;;;;15.00;14.00;;;;;;;;5011859;28;8804;-74
2023/06/21 07:17:58;;;;;;;;;15.67;15.00;;;;;;;;5011680;28;9480;-75
2023/06/21 07:20:24;;;;;;;;;15.00;14.00;;;;;;;;5011165;28;11572;-76
2023/06/21 07:22:49;;;;;;;;;16.00;14.00;;;;;;;;5011388;28;8879;-75
2023/06/21 07:25:15;;;;;;;;;15.00;12.00;;;;;;;;5011583;28;8889;-76
2023/06/21 07:27:40;;;;;;;;;16.33;14.67;;;;;;;;5011514;28;8831;-75
2023/06/21 07:30:06;;;;;;;;;13.33;13.33;;;;;;;;5011009;28;8828;-75
2023/06/21 07:32:33;;;;;;;;;15.00;12.67;;;;;;;;5011136;28;8874;-78
2023/06/21 07:34:58;;;;;;;;;13.50;13.00;;;;;;;;5012384;28;8954;-80
2023/06/21 07:37:24;;;;;;;;;19.33;15.00;;;;;;;;5011188;28;8974;-77
2023/06/21 07:39:49;;;;;;;;;12.67;12.33;;;;;;;;5009138;28;8858;-76
2023/06/21 07:42:15;;;;;;;;;18.67;17.00;;;;;;;;5013106;28;8808;-79
2023/06/21 07:44:40;;;;;;;;;15.33;14.67;;;;;;;;5012024;28;8834;-79
2023/06/21 07:47:06;;;;;;;;;16.67;13.33;;;;;;;;5012255;28;8761;-79
2023/06/21 07:49:31;;;;;;;;;13.33;12.00;;;;;;;;5011765;28;8808;-81
2023/06/21 07:51:56;;;;;;;;;17.67;14.00;;;;;;;;5011708;28;8800;-77
2023/06/21 07:54:23;;;;;;;;;11.67;11.67;;;;;;;;5010356;28;8808;-78
2023/06/21 07:56:48;;;;;;;;;14.00;12.00;;;;;;;;5010282;28;8807;-77
2023/06/21 07:59:13;;;;;;;;;12.00;12.00;;;;;;;;5010822;28;8824;-78
2023/06/21 08:01:38;;;;;;;;;11.67;11.00;;;;;;;;5011274;28;8855;-75
2023/06/21 08:04:04;;;;;;;;;13.00;13.00;;;;;;;;5010656;28;8873;-74
2023/06/21 08:06:29;;;;;;;;;14.33;13.33;;;;;;;;5010482;28;8792;-74
2023/06/21 08:08:54;;;;;;;;;14.00;14.00;;;;;;;;5009999;28;8804;-73
2023/06/21 08:11:20;;;;;;;;;15.00;12.33;;;;;;;;5010778;28;8804;-74
2023/06/21 08:13:45;;;;;;;;;12.00;12.00;;;;;;;;5010019;28;8844;-71
2023/06/21 08:16:10;;;;;;;;;12.33;12.00;;;;;;;;5010145;28;8828;-71
2023/06/21 08:18:36;;;;;;;;;14.33;12.00;;;;;;;;5009660;28;8818;-75
2023/06/21 08:21:01;;;;;;;;;11.00;11.00;;;;;;;;5010030;28;9033;-71
2023/06/21 08:23:26;;;;;;;;;10.67;10.00;;;;;;;;5010346;28;8827;-77
2023/06/21 08:25:52;;;;;;;;;10.00;10.00;;;;;;;;5010533;28;8800;-70
2023/06/21 08:28:17;;;;;;;;;14.67;13.33;;;;;;;;5010551;28;8874;-69
2023/06/21 08:30:42;;;;;;;;;14.00;12.00;;;;;;;;5010332;28;8842;-76
2023/06/21 08:33:08;;;;;;;;;13.67;11.00;;;;;;;;5010581;28;8955;-79
2023/06/21 08:35:33;;;;;;;;;14.00;11.00;;;;;;;;5010607;28;8873;-72
2023/06/21 08:37:59;;;;;;;;;9.00;9.00;;;;;;;;5010340;28;8808;-84
2023/06/21 08:40:27;;;;;;;;;10.00;10.00;;;;;;;;5009467;28;8911;-79
2023/06/21 08:42:53;;;;;;;;;13.00;11.25;;;;;;;;5010750;28;8805;-77
2023/06/21 08:45:18;;;;;;;;;10.00;9.33;;;;;;;;4993327;28;8812;-78
2023/06/21 08:47:45;;;;;;;;;12.67;10.00;;;;;;;;5015927;28;8784;-79
2023/06/21 08:50:13;;;;;;;;;13.75;10.75;;;;;;;;5002441;28;9629;-78
2023/06/21 08:52:41;;;;;;;;;10.00;9.75;;;;;;;;5011533;28;9819;-80
2023/06/21 08:55:08;;;;;;;;;9.50;9.50;;;;;;;;5011312;28;8878;-79
2023/06/21 08:57:38;;;;;;;;;9.00;9.00;;;;;;;;5011268;28;9617;-83
2023/06/21 09:00:05;;;;;;;;;11.00;10.25;;;;;;;;5012035;28;9570;-82
2023/06/21 09:02:47;;;;;;;;;13.75;10.25;;;;;;;;5011594;28;8780;-82
2023/06/21 09:05:16;;;;;;;;;12.00;11.75;;;;;;;;5011245;28;9052;-82
2023/06/21 09:07:42;;;;;;;;;13.00;11.00;;;;;;;;5010637;28;8853;-81
2023/06/21 09:10:08;;;;;;;;;8.00;8.00;;;;;;;;5010257;28;8805;-77
2023/06/21 09:12:34;;;;;;;;;9.67;9.67;;;;;;;;4997451;28;9607;-76
2023/06/21 09:15:00;;;;;;;;;13.50;11.00;;;;;;;;5001867;28;8814;-79
2023/06/21 09:17:26;;;;;;;;;10.00;10.00;;;;;;;;4998367;28;8814;-76
2023/06/21 09:19:52;;;;;;;;;15.00;12.00;;;;;;;;5004409;28;8831;-74
2023/06/21 09:22:18;;;;;;;;;12.00;10.00;;;;;;;;5009836;28;8769;-75
2023/06/21 09:24:44;;;;;;;;;14.67;11.67;;;;;;;;5010232;28;8885;-79
2023/06/21 09:27:10;;;;;;;;;12.00;12.00;;;;;;;;5010720;28;8870;-76
2023/06/21 09:29:35;;;;;;;;;9.33;9.33;;;;;;;;5007274;28;8834;-69
2023/06/21 09:32:01;;;;;;;;;10.00;10.00;;;;;;;;4998401;28;8830;-70
2023/06/21 09:34:27;;;;;;;;;9.75;9.75;;;;;;;;5003712;28;8824;-70
2023/06/21 09:36:53;;;;;;;;;8.33;7.67;;;;;;;;5009856;28;8808;-69
2023/06/21 09:39:21;;;;;;;;;11.00;10.00;;;;;;;;4991857;28;8854;-72
2023/06/21 09:41:47;;;;;;;;;10.50;8.75;;;;;;;;4997088;28;8949;-70
2023/06/21 09:44:12;;;;;;;;;12.00;10.00;;;;;;;;4991341;28;9653;-70
2023/06/21 09:46:38;;;;;;;;;11.00;10.00;;;;;;;;4991660;28;8935;-70
2023/06/21 09:49:07;;;;;;;;;10.67;9.33;;;;;;;;4992101;28;8828;-72
2023/06/21 09:51:33;;;;;;;;;11.00;11.00;;;;;;;;5009359;28;8800;-72
2023/06/21 09:54:02;;;;;;;;;10.00;9.33;;;;;;;;5009294;28;9011;-72
2023/06/21 09:56:31;;;;;;;;;11.00;11.00;;;;;;;;5009357;28;8919;-71
2023/06/21 09:58:57;;;;;;;;;11.00;10.00;;;;;;;;5009516;28;8800;-75
2023/06/21 10:01:24;;;;;;;;;9.00;9.00;;;;;;;;5008980;28;8820;-71
2023/06/21 10:03:49;;;;;;;;;10.00;10.00;;;;;;;;5009229;28;8804;-72
2023/06/21 10:06:18;;;;;;;;;9.33;9.33;;;;;;;;5009086;28;8800;-72
2023/06/21 10:08:43;;;;;;;;;14.00;12.50;;;;;;;;4989392;28;8862;-72
2023/06/21 10:11:09;;;;;;;;;10.33;10.33;;;;;;;;5003629;28;8828;-72
2023/06/21 10:13:37;;;;;;;;;14.33;14.33;;;;;;;;5009126;28;8797;-71
2023/06/21 10:16:03;;;;;;;;;13.00;13.00;;;;;;;;5008724;28;8816;-71
2023/06/21 10:18:29;;;;;;;;;14.00;12.33;;;;;;;;5008639;28;8781;-71
2023/06/21 10:21:00;;;;;;;;;12.67;11.00;;;;;;;;5008142;28;8859;-71
2023/06/21 10:23:27;;;;;;;;;15.00;12.00;;;;;;;;4995308;28;11500;-70
2023/06/21 10:25:54;;;;;;;;;11.50;10.75;;;;;;;;4997835;28;8897;-70
2023/06/21 10:28:21;;;;;;;;;11.50;11.00;;;;;;;;4999013;28;8839;-71
2023/06/21 10:30:50;;;;;;;;;12.50;12.00;;;;;;;;5007369;28;8862;-71
2023/06/21 10:33:16;;;;;;;;;13.25;12.25;;;;;;;;5008714;28;8803;-70
2023/06/21 10:35:45;;;;;;;;;16.00;12.00;;;;;;;;5008725;28;8776;-71
2023/06/21 10:38:45;;;;;;;;;6.25;6.25;;;;;;;;5008680;28;8818;-69
2023/06/21 10:41:11;;;;;;;;;12.25;11.50;;;;;;;;4931920;29;8885;-72
2023/06/21 10:43:37;;;;;;;;;11.00;10.33;;;;;;;;4928188;29;8842;-72
2023/06/21 10:46:05;;;;;;;;;12.00;11.00;;;;;;;;4926531;29;9392;-71
2023/06/21 10:48:33;;;;;;;;;14.50;12.50;;;;;;;;4931652;29;8945;-69
2023/06/21 10:51:01;;;;;;;;;14.50;14.50;;;;;;;;4931496;29;8843;-70
2023/06/21 10:53:29;;;;;;;;;10.75;10.75;;;;;;;;4932095;29;8834;-71
2023/06/21 10:55:55;;;;;;;;;15.00;13.75;;;;;;;;4915600;29;8921;-69
2023/06/21 10:58:22;;;;;;;;;14.33;13.00;;;;;;;;4931799;29;8811;-70
2023/06/21 11:00:50;;;;;;;;;17.00;15.50;;;;;;;;4932234;29;9196;-69
2023/06/21 11:03:16;;;;;;;;;10.00;9.50;;;;;;;;4933663;29;8791;-70
2023/06/21 11:05:42;;;;;;;;;11.25;8.75;;;;;;;;4932498;29;8821;-70
2023/06/21 11:08:09;;;;;;;;;13.00;11.33;;;;;;;;4931177;29;8843;-70
2023/06/21 11:10:40;;;;;;;;;14.50;11.75;;;;;;;;4931932;29;8829;-70
2023/06/21 11:13:05;;;;;;;;;11.00;11.00;;;;;;;;4931439;29;8914;-72
2023/06/21 11:15:32;;;;;;;;;13.33;12.67;;;;;;;;4982481;28;9769;-70
2023/06/21 11:18:01;;;;;;;;;14.25;12.75;;;;;;;;5008962;28;9676;-70
2023/06/21 11:20:27;;;;;;;;;10.00;10.00;;;;;;;;4991115;28;8864;-70
2023/06/21 11:23:07;;;;;;;;;14.33;14.00;;;;;;;;4989597;28;8798;-70
2023/06/21 11:25:36;;;;;;;;;14.00;14.00;;;;;;;;4989955;28;8774;-70
2023/06/21 11:28:29;;;;;;;;;15.25;13.75;;;;;;;;4990119;28;8818;-69
2023/06/21 11:31:00;;;;;;;;;13.00;12.75;;;;;;;;4986573;28;9323;-69
2023/06/21 11:33:29;;;;;;;;;12.50;12.50;;;;;;;;4989378;28;8814;-69
2023/06/21 11:36:07;;;;;;;;;12.75;12.75;;;;;;;;4991325;28;8822;-72
2023/06/21 11:38:33;;;;;;;;;12.50;12.50;;;;;;;;4990005;28;8849;-70
2023/06/21 11:40:59;;;;;;;;;13.00;12.00;;;;;;;;4991385;28;8826;-70
2023/06/21 11:43:25;;;;;;;;;13.67;13.67;;;;;;;;4991428;28;8878;-70
2023/06/21 11:46:03;;;;;;;;;11.67;11.67;;;;;;;;5006574;28;8796;-69
2023/06/21 11:48:29;;;;;;;;;13.00;11.75;;;;;;;;5009970;28;8938;-70
2023/06/21 11:50:55;;;;;;;;;13.00;11.75;;;;;;;;4894436;28;10503;-71
2023/06/21 11:53:28;;;;;;;;;12.00;11.00;;;;;;;;5007177;28;8964;-70
2023/06/21 11:55:57;;;;;;;;;13.00;11.00;;;;;;;;4993119;28;8841;-73
2023/06/21 11:58:23;;;;;;;;;13.25;11.75;;;;;;;;5010804;28;8798;-72
2023/06/21 12:00:48;;;;;;;;;10.67;10.00;;;;;;;;4997619;28;8945;-72
2023/06/21 12:03:14;;;;;;;;;13.00;12.00;;;;;;;;4991093;28;8955;-71
2023/06/21 12:05:50;;;;;;;;;12.33;10.67;;;;;;;;4991219;28;8794;-70
2023/06/21 12:08:16;;;;;;;;;13.75;10.00;;;;;;;;4990837;28;8807;-69
2023/06/21 12:10:41;;;;;;;;;13.00;11.00;;;;;;;;4994563;28;8860;-69
2023/06/21 12:13:07;;;;;;;;;12.00;12.00;;;;;;;;5010253;28;8846;-69
2023/06/21 12:15:32;;;;;;;;;13.33;13.00;;;;;;;;5010229;28;8816;-69
2023/06/21 12:17:58;;;;;;;;;15.33;15.33;;;;;;;;5006316;28;8832;-71
2023/06/21 12:20:23;;;;;;;;;11.00;11.00;;;;;;;;4998275;28;8816;-71
2023/06/21 12:22:48;;;;;;;;;13.33;11.67;;;;;;;;5009857;28;8792;-69
2023/06/21 12:25:14;;;;;;;;;12.33;11.00;;;;;;;;5010273;28;8842;-71
2023/06/21 12:27:55;;;;;;;;;13.00;12.00;;;;;;;;5009249;28;8923;-69
2023/06/21 12:30:21;;;;;;;;;14.00;13.00;;;;;;;;5005704;28;8836;-70
2023/06/21 12:32:49;;;;;;;;;13.00;13.00;;;;;;;;5010175;28;8974;-68
2023/06/21 12:35:18;;;;;;;;;10.75;10.75;;;;;;;;5010344;28;8915;-69
2023/06/21 12:37:46;;;;;;;;;11.25;11.25;;;;;;;;5010150;28;8812;-68
2023/06/21 12:40:15;;;;;;;;;10.00;10.00;;;;;;;;5001359;28;8922;-70
2023/06/21 12:42:43;;;;;;;;;12.00;12.00;;;;;;;;4990103;28;8794;-69
2023/06/21 12:45:12;;;;;;;;;11.50;11.50;;;;;;;;4998962;28;8816;-69
2023/06/21 12:47:37;;;;;;;;;11.75;11.75;;;;;;;;5010366;28;8800;-70
2023/06/21 12:50:15;;;;;;;;;12.33;10.00;;;;;;;;5003540;28;8853;-69
2023/06/21 12:52:40;;;;;;;;;15.00;14.75;;;;;;;;4989817;28;8782;-70
2023/06/21 12:55:06;;;;;;;;;13.00;11.00;;;;;;;;4989786;28;8822;-69
2023/06/21 12:57:31;;;;;;;;;12.00;12.00;;;;;;;;4990120;28;8790;-69
2023/06/21 12:59:57;;;;;;;;;8.67;8.67;;;;;;;;4988057;28;8842;-70
2023/06/21 13:02:26;;;;;;;;;12.67;12.00;;;;;;;;4990503;28;8904;-70
2023/06/21 13:04:52;;;;;;;;;12.50;11.50;;;;;;;;4989535;28;11448;-72
2023/06/21 13:07:17;;;;;;;;;11.25;11.25;;;;;;;;4989860;28;8786;-70
2023/06/21 13:09:43;;;;;;;;;11.00;9.00;;;;;;;;4987321;28;8802;-71
2023/06/21 13:12:08;;;;;;;;;16.00;11.50;;;;;;;;5009633;28;8828;-72
2023/06/21 13:14:34;;;;;;;;;12.00;11.00;;;;;;;;5009088;28;8910;-70
2023/06/21 13:16:59;;;;;;;;;11.00;11.00;;;;;;;;5011293;28;9512;-71
2023/06/21 13:19:25;;;;;;;;;10.67;10.67;;;;;;;;5009495;28;8863;-67
2023/06/21 13:21:50;;;;;;;;;13.33;11.33;;;;;;;;4917671;28;11163;-68
2023/06/21 13:24:16;;;;;;;;;10.67;10.00;;;;;;;;4980091;28;8852;-69
2023/06/21 13:26:41;;;;;;;;;11.67;11.67;;;;;;;;5008208;28;8828;-69
2023/06/21 13:29:06;;;;;;;;;12.00;10.67;;;;;;;;5006953;28;8860;-68
2023/06/21 13:31:33;;;;;;;;;13.67;13.00;;;;;;;;5007182;28;8812;-68
2023/06/21 13:33:58;;;;;;;;;12.25;12.00;;;;;;;;5005954;28;8829;-68
2023/06/21 13:36:23;;;;;;;;;11.67;11.33;;;;;;;;5007054;28;8836;-68
2023/06/21 13:38:49;;;;;;;;;12.33;11.00;;;;;;;;5007063;28;8791;-69
2023/06/21 13:41:14;;;;;;;;;11.00;10.00;;;;;;;;5006948;28;8844;-68
2023/06/21 13:43:39;;;;;;;;;13.00;11.67;;;;;;;;5008271;28;9060;-68
2023/06/21 13:46:05;;;;;;;;;12.00;11.00;;;;;;;;5009272;28;8854;-69
2023/06/21 13:48:30;;;;;;;;;16.33;14.67;;;;;;;;5008626;28;8828;-68
2023/06/21 13:50:55;;;;;;;;;9.00;9.00;;;;;;;;5007771;28;8824;-70
2023/06/21 13:53:21;;;;;;;;;9.67;7.67;;;;;;;;5009060;28;8800;-68
2023/06/21 13:55:47;;;;;;;;;10.33;10.00;;;;;;;;4958429;28;8839;-71
2023/06/21 13:58:12;;;;;;;;;12.33;11.33;;;;;;;;5003775;28;8824;-70
2023/06/21 14:00:38;;;;;;;;;10.00;10.00;;;;;;;;5005194;28;8963;-70
2023/06/21 14:03:03;;;;;;;;;12.00;10.33;;;;;;;;4998847;28;8800;-69
2023/06/21 14:05:28;;;;;;;;;10.33;10.33;;;;;;;;4997644;28;8837;-69
2023/06/21 14:07:54;;;;;;;;;13.33;13.33;;;;;;;;4997727;28;8901;-70
2023/06/21 14:10:19;;;;;;;;;10.67;10.00;;;;;;;;4999289;28;8843;-70
2023/06/21 14:12:44;;;;;;;;;11.00;9.33;;;;;;;;4995569;28;8825;-70
2023/06/21 14:15:10;;;;;;;;;9.33;7.67;;;;;;;;5002405;28;9523;-71
2023/06/21 14:17:36;;;;;;;;;11.67;11.00;;;;;;;;5012605;28;8859;-69
2023/06/21 14:20:06;;;;;;;;;12.00;11.00;;;;;;;;4999254;28;8889;-69
2023/06/21 14:22:35;;;;;;;;;12.00;10.50;;;;;;;;5012684;28;8792;-70
2023/06/21 14:25:02;;;;;;;;;9.75;9.50;;;;;;;;5012601;28;8796;-70
2023/06/21 14:27:27;;;;;;;;;11.00;11.00;;;;;;;;5012706;28;8780;-69
2023/06/21 14:29:54;;;;;;;;;10.33;10.33;;;;;;;;5012675;28;8986;-68